createdAt,value
2022-08-10T00:00:35.018Z,17.90
2022-08-10T00:03:02.114Z,17.80
2022-08-10T00:05:28.382Z,17.80
2022-08-10T00:08:10.233Z,17.80
2022-08-10T00:10:36.408Z,17.80
2022-08-10T00:13:02.569Z,17.70
2022-08-10T00:15:53.107Z,17.60
2022-08-10T00:18:31.428Z,17.60
2022-08-10T00:21:01.501Z,17.60
2022-08-10T00:23:27.649Z,17.60
2022-08-10T00:25:53.715Z,17.60
2022-08-10T00:28:19.820Z,17.60
2022-08-10T00:30:45.903Z,17.50
2022-08-10T00:33:12.305Z,17.50
2022-08-10T00:35:38.365Z,17.40
2022-08-10T00:38:04.501Z,17.50
2022-08-10T00:40:37.169Z,17.40
2022-08-10T00:43:07.454Z,17.40
2022-08-10T00:45:34.724Z,17.40
2022-08-10T00:48:02.491Z,17.30
2022-08-10T00:50:29.071Z,17.30
2022-08-10T00:52:55.466Z,17.30
2022-08-10T00:55:21.946Z,17.30
2022-08-10T00:57:54.807Z,17.20
2022-08-10T01:00:22.492Z,17.20
2022-08-10T01:02:48.731Z,17.20
2022-08-10T01:05:15.104Z,17.20
2022-08-10T01:08:09.048Z,17.20
2022-08-10T01:10:58.457Z,17.10
2022-08-10T01:13:37.028Z,17.10
2022-08-10T01:16:23.418Z,17.10
2022-08-10T01:18:58.838Z,17.00
2022-08-10T01:21:38.993Z,17.00
2022-08-10T01:24:25.117Z,16.90
2022-08-10T01:27:02.720Z,16.90
2022-08-10T01:29:45.346Z,16.90
2022-08-10T01:32:14.343Z,16.90
2022-08-10T01:34:59.039Z,16.90
2022-08-10T01:37:31.674Z,16.80
2022-08-10T01:40:01.557Z,16.80
2022-08-10T01:42:32.207Z,16.80
2022-08-10T01:45:03.469Z,16.70
2022-08-10T01:47:51.996Z,16.70
2022-08-10T01:50:59.615Z,16.70
2022-08-10T01:53:26.367Z,16.70
2022-08-10T01:55:55.409Z,16.70
2022-08-10T01:58:25.641Z,16.60
2022-08-10T02:00:53.787Z,16.60
2022-08-10T02:03:22.113Z,16.60
2022-08-10T02:05:53.897Z,16.60
2022-08-10T02:08:23.193Z,16.60
2022-08-10T02:10:52.057Z,16.50
2022-08-10T02:13:19.150Z,16.60
2022-08-10T02:16:01.315Z,16.50
2022-08-10T02:18:30.738Z,16.50
2022-08-10T02:20:58.944Z,16.50
2022-08-10T02:23:31.231Z,16.40
2022-08-10T02:25:59.664Z,16.40
2022-08-10T02:28:30.960Z,16.40
2022-08-10T02:31:06.437Z,16.40
2022-08-10T02:33:37.051Z,16.30
2022-08-10T02:36:06.881Z,16.40
2022-08-10T02:38:58.526Z,16.30
2022-08-10T02:45:14.099Z,16.30
2022-08-10T02:45:17.698Z,16.30
2022-08-10T02:47:51.432Z,16.20
2022-08-10T02:50:26.521Z,16.20
2022-08-10T02:53:04.429Z,16.20
2022-08-10T02:55:48.254Z,16.20
2022-08-10T02:58:22.192Z,16.20
2022-08-10T03:00:53.228Z,16.10
2022-08-10T03:03:32.398Z,16.10
2022-08-10T03:06:03.050Z,16.10
2022-08-10T03:08:33.213Z,16.00
2022-08-10T03:11:02.309Z,16.00
2022-08-10T03:13:30.215Z,16.00
2022-08-10T03:15:58.009Z,16.00
2022-08-10T03:18:25.168Z,16.00
2022-08-10T03:20:53.333Z,16.00
2022-08-10T03:23:24.492Z,15.90
2022-08-10T03:25:55.051Z,15.90
2022-08-10T03:28:23.849Z,15.90
2022-08-10T03:30:50.470Z,15.90
2022-08-10T03:33:17.462Z,15.80
2022-08-10T03:35:43.528Z,15.80
2022-08-10T03:38:29.734Z,15.80
2022-08-10T03:41:01.066Z,15.80
2022-08-10T03:43:28.890Z,15.80
2022-08-10T03:45:59.059Z,15.70
2022-08-10T03:48:32.107Z,15.70
2022-08-10T03:51:15.893Z,15.70
2022-08-10T03:54:04.749Z,15.70
2022-08-10T03:56:32.238Z,15.70
2022-08-10T03:58:59.741Z,15.60
2022-08-10T04:02:43.821Z,15.60
2022-08-10T04:04:17.551Z,15.60
2022-08-10T04:06:47.192Z,15.60
2022-08-10T04:09:17.461Z,15.50
2022-08-10T04:11:43.618Z,15.50
2022-08-10T04:14:37.935Z,15.50
2022-08-10T04:16:55.871Z,15.50
2022-08-10T04:19:23.294Z,15.50
2022-08-10T04:22:09.810Z,15.50
2022-08-10T04:24:37.989Z,15.50
2022-08-10T04:27:04.611Z,15.50
2022-08-10T04:29:30.769Z,15.50
2022-08-10T04:31:56.839Z,15.50
2022-08-10T04:34:26.299Z,15.50
2022-08-10T04:36:55.783Z,15.50
2022-08-10T04:39:21.963Z,15.50
2022-08-10T04:41:48.266Z,15.50
2022-08-10T04:44:15.054Z,15.50
2022-08-10T04:46:55.529Z,15.50
2022-08-10T04:49:53.854Z,15.50
2022-08-10T04:52:09.872Z,15.50
2022-08-10T04:54:35.940Z,15.60
2022-08-10T04:57:02.182Z,15.60
2022-08-10T04:59:28.259Z,15.60
2022-08-10T05:02:27.049Z,15.60
2022-08-10T05:04:40.529Z,15.70
2022-08-10T05:07:08.850Z,15.70
2022-08-10T05:10:04.633Z,15.80
2022-08-10T05:12:21.737Z,15.80
2022-08-10T05:14:48.234Z,15.80
2022-08-10T05:17:14.644Z,15.90
2022-08-10T05:20:03.060Z,15.90
2022-08-10T05:22:27.019Z,15.90
2022-08-10T05:24:53.068Z,16.00
2022-08-10T05:27:19.153Z,16.10
2022-08-10T05:29:45.278Z,16.20
2022-08-10T05:32:27.994Z,16.40
2022-08-10T05:34:54.156Z,16.70
2022-08-10T05:38:10.202Z,17.00
2022-08-10T05:40:07.960Z,17.30
2022-08-10T05:42:34.836Z,17.50
2022-08-10T05:45:01.233Z,17.70
2022-08-10T05:47:27.494Z,17.80
2022-08-10T05:49:55.416Z,17.90
2022-08-10T05:52:22.195Z,18.00
2022-08-10T05:54:49.348Z,18.30
2022-08-10T05:57:18.926Z,18.70
2022-08-10T06:00:29.592Z,19.00
2022-08-10T06:02:51.460Z,19.40
2022-08-10T06:05:30.866Z,19.80
2022-08-10T06:08:16.765Z,20.10
2022-08-10T06:12:24.023Z,20.40
2022-08-10T06:14:13.403Z,20.60
2022-08-10T06:16:43.003Z,20.90
2022-08-10T06:19:11.896Z,21.30
2022-08-10T06:21:53.632Z,21.50
2022-08-10T06:24:30.709Z,21.90
2022-08-10T06:26:57.972Z,22.20
2022-08-10T06:29:25.814Z,22.50
2022-08-10T06:31:53.436Z,22.90
2022-08-10T06:34:29.758Z,23.20
2022-08-10T06:36:59.364Z,23.60
2022-08-10T06:39:34.062Z,24.00
2022-08-10T06:42:35.139Z,24.30
2022-08-10T06:45:20.316Z,24.60
2022-08-10T06:48:01.790Z,24.90
2022-08-10T06:50:56.405Z,25.20
2022-08-10T06:53:54.232Z,25.50
2022-08-10T06:56:20.073Z,25.80
2022-08-10T06:59:29.040Z,26.00
2022-08-10T07:02:04.967Z,26.20
2022-08-10T07:04:45.188Z,26.50
2022-08-10T07:07:18.397Z,26.90
2022-08-10T07:09:45.412Z,27.30
2022-08-10T07:12:14.190Z,27.60
2022-08-10T07:14:43.713Z,28.00
2022-08-10T07:17:16.618Z,28.40
2022-08-10T07:20:05.707Z,28.70
2022-08-10T07:23:01.437Z,29.00
2022-08-10T07:25:24.549Z,29.30
2022-08-10T07:27:59.064Z,29.60
2022-08-10T07:30:36.159Z,29.90
2022-08-10T07:33:04.248Z,30.20
2022-08-10T07:35:41.530Z,30.20
2022-08-10T07:38:16.232Z,30.20
2022-08-10T07:40:44.605Z,30.60
2022-08-10T07:43:12.921Z,30.80
2022-08-10T07:45:39.838Z,31.00
2022-08-10T07:48:19.205Z,31.00
2022-08-10T07:50:46.716Z,31.00
2022-08-10T07:53:20.231Z,31.50
2022-08-10T07:56:01.645Z,32.00
2022-08-10T07:58:38.951Z,32.00
2022-08-10T08:01:28.624Z,32.40
2022-08-10T08:04:49.116Z,32.70
2022-08-10T08:07:21.298Z,33.30
2022-08-10T08:09:58.190Z,33.70
2022-08-10T08:12:27.619Z,34.00
2022-08-10T08:14:56.245Z,34.30
2022-08-10T08:17:36.284Z,34.50
2022-08-10T08:20:04.084Z,34.70
2022-08-10T08:24:06.315Z,35.10
2022-08-10T08:25:21.603Z,35.50
2022-08-10T08:27:52.400Z,35.80
2022-08-10T08:30:26.791Z,36.00
2022-08-10T08:34:05.186Z,36.30
2022-08-10T08:36:49.465Z,36.70
2022-08-10T08:39:15.826Z,37.10
2022-08-10T08:41:49.727Z,37.40
2022-08-10T08:44:37.609Z,37.70
2022-08-10T08:48:04.117Z,38.20
2022-08-10T08:50:34.823Z,38.60
2022-08-10T08:53:22.267Z,38.90
2022-08-10T08:56:24.229Z,39.20
2022-08-10T08:59:05.025Z,39.50
2022-08-10T09:01:57.610Z,40.00
2022-08-10T09:04:32.702Z,40.20
2022-08-10T09:07:59.133Z,40.30
2022-08-10T09:10:07.097Z,40.60
2022-08-10T09:13:00.709Z,41.00
2022-08-10T09:16:04.335Z,41.30
2022-08-10T09:18:33.458Z,41.50
2022-08-10T09:21:43.445Z,41.50
2022-08-10T09:24:47.701Z,41.70
2022-08-10T09:27:45.032Z,41.90
2022-08-10T09:30:25.986Z,42.00
2022-08-10T09:36:25.984Z,42.30
2022-08-10T09:36:33.318Z,42.70
2022-08-10T09:40:06.547Z,43.10
2022-08-10T09:43:21.539Z,43.40
2022-08-10T09:45:56.164Z,43.80
2022-08-10T09:48:33.128Z,44.00
2022-08-10T09:51:42.119Z,44.30
2022-08-10T09:54:34.334Z,44.50
2022-08-10T09:57:43.986Z,44.80
2022-08-10T10:00:13.733Z,44.90
2022-08-10T10:02:57.253Z,45.10
2022-08-10T10:05:33.251Z,45.30
2022-08-10T10:08:02.122Z,45.60
2022-08-10T10:18:30.878Z,46.20
2022-08-10T10:21:06.484Z,46.40
2022-08-10T10:24:19.944Z,46.60
2022-08-10T10:27:18.157Z,46.80
2022-08-10T10:30:03.959Z,46.80
2022-08-10T10:32:37.148Z,46.90
2022-08-10T10:39:00.808Z,47.20
2022-08-10T10:42:34.949Z,47.30
2022-08-10T10:45:17.505Z,47.40
2022-08-10T10:48:24.146Z,47.20
2022-08-10T10:54:23.082Z,47.40
2022-08-10T10:57:05.784Z,47.40
2022-08-10T11:00:11.242Z,47.40
2022-08-10T11:02:48.930Z,47.50
2022-08-10T11:05:18.713Z,47.50
2022-08-10T11:07:55.991Z,47.70
2022-08-10T11:10:32.490Z,47.60
2022-08-10T11:14:26.092Z,47.80
2022-08-10T11:16:29.291Z,47.90
2022-08-10T11:19:16.771Z,47.90
2022-08-10T11:21:57.022Z,48.20
2022-08-10T11:24:51.636Z,48.10
2022-08-10T11:27:33.129Z,48.40
2022-08-10T11:30:05.701Z,48.30
2022-08-10T11:32:34.896Z,48.40
2022-08-10T11:35:11.402Z,48.50
2022-08-10T11:38:31.303Z,48.80
2022-08-10T11:42:06.533Z,49.00
2022-08-10T11:44:37.924Z,49.00
2022-08-10T11:47:21.538Z,48.80
2022-08-10T11:50:01.453Z,48.80
2022-08-10T11:52:54.490Z,48.80
2022-08-10T11:55:22.696Z,48.90
2022-08-10T11:57:55.519Z,48.80
2022-08-10T12:00:23.895Z,48.30
2022-08-10T12:02:57.384Z,48.40
2022-08-10T12:05:54.825Z,48.70
2022-08-10T12:10:06.980Z,48.60
2022-08-10T12:11:23.928Z,48.60
2022-08-10T12:14:22.011Z,48.60
2022-08-10T12:16:57.302Z,48.90
2022-08-10T12:20:02.438Z,49.00
2022-08-10T12:22:35.826Z,49.00
2022-08-10T12:26:07.124Z,48.90
2022-08-10T12:28:50.959Z,48.80
2022-08-10T12:31:34.554Z,48.70
2022-08-10T12:34:17.685Z,48.70
2022-08-10T12:37:00.061Z,48.80
2022-08-10T12:39:30.284Z,48.70
2022-08-10T12:42:09.674Z,48.90
2022-08-10T12:44:47.780Z,49.10
2022-08-10T12:47:52.077Z,49.20
2022-08-10T12:51:20.584Z,49.20
2022-08-10T12:54:12.801Z,49.30
2022-08-10T12:56:51.921Z,49.00
2022-08-10T12:59:56.272Z,48.90
2022-08-10T13:02:29.219Z,48.60
2022-08-10T13:05:01.731Z,48.60
2022-08-10T13:08:03.550Z,48.40
2022-08-10T13:10:26.135Z,48.20
2022-08-10T13:12:57.214Z,47.90
2022-08-10T13:15:49.127Z,47.90
2022-08-10T13:18:28.641Z,47.70
2022-08-10T13:21:20.658Z,47.30
2022-08-10T13:24:15.902Z,46.70
2022-08-10T13:27:25.982Z,46.40
2022-08-10T13:30:03.955Z,46.40
2022-08-10T13:32:32.767Z,46.10
2022-08-10T13:35:10.253Z,45.80
2022-08-10T13:37:42.700Z,45.60
2022-08-10T13:40:12.316Z,45.70
2022-08-10T13:42:40.387Z,45.60
2022-08-10T13:45:15.835Z,45.50
2022-08-10T13:47:48.784Z,45.30
2022-08-10T13:50:33.339Z,45.10
2022-08-10T13:53:13.230Z,44.80
2022-08-10T13:55:55.262Z,44.40
2022-08-10T13:58:37.612Z,43.90
2022-08-10T14:01:14.373Z,43.60
2022-08-10T14:03:43.694Z,43.20
2022-08-10T14:06:14.972Z,43.00
2022-08-10T14:08:49.655Z,42.70
2022-08-10T14:11:20.931Z,42.30
2022-08-10T14:14:06.357Z,42.00
2022-08-10T14:16:34.244Z,41.50
2022-08-10T14:19:09.860Z,41.00
2022-08-10T14:21:42.716Z,40.60
2022-08-10T14:24:29.947Z,40.10
2022-08-10T14:27:07.008Z,39.60
2022-08-10T14:29:47.209Z,39.00
2022-08-10T14:32:16.364Z,38.50
2022-08-10T14:34:59.289Z,38.00
2022-08-10T14:37:38.052Z,37.60
2022-08-10T14:40:07.436Z,37.30
2022-08-10T14:42:43.975Z,37.10
2022-08-10T14:45:29.613Z,36.80
2022-08-10T14:48:31.691Z,36.60
2022-08-10T14:51:01.283Z,36.20
2022-08-10T14:53:34.560Z,36.00
2022-08-10T14:56:27.974Z,35.80
2022-08-10T14:59:06.734Z,35.60
2022-08-10T15:02:00.240Z,35.40
2022-08-10T15:04:30.640Z,35.20
2022-08-10T15:07:03.822Z,35.20
2022-08-10T15:09:59.435Z,35.10
2022-08-10T15:12:38.470Z,35.00
2022-08-10T15:15:08.983Z,34.80
2022-08-10T15:18:02.712Z,34.70
2022-08-10T15:20:30.803Z,34.70
2022-08-10T15:23:05.612Z,34.60
2022-08-10T15:25:40.668Z,34.40
2022-08-10T15:28:24.823Z,34.40
2022-08-10T15:31:04.199Z,34.20
2022-08-10T15:34:10.591Z,34.00
2022-08-10T15:37:39.263Z,33.80
2022-08-10T15:40:30.898Z,33.80
2022-08-10T15:43:05.633Z,33.70
2022-08-10T15:46:04.344Z,33.60
2022-08-10T15:48:43.817Z,33.50
2022-08-10T15:51:53.645Z,33.50
2022-08-10T15:54:33.363Z,33.40
2022-08-10T15:57:06.103Z,33.40
2022-08-10T15:59:42.656Z,33.20
2022-08-10T16:02:17.679Z,33.10
2022-08-10T16:04:58.297Z,33.00
2022-08-10T16:07:45.455Z,32.90
2022-08-10T16:10:27.633Z,32.80
2022-08-10T16:13:59.608Z,32.70
2022-08-10T16:16:18.723Z,32.60
2022-08-10T16:18:48.738Z,32.40
2022-08-10T16:21:23.676Z,32.40
2022-08-10T16:24:15.718Z,32.20
2022-08-10T16:26:52.533Z,32.10
2022-08-10T16:29:25.460Z,32.10
2022-08-10T16:31:57.294Z,32.10
2022-08-10T16:34:28.155Z,32.00
2022-08-10T16:37:13.719Z,32.00
2022-08-10T16:40:01.483Z,31.90
2022-08-10T16:42:34.113Z,31.80
2022-08-10T16:45:16.997Z,31.70
2022-08-10T16:47:49.270Z,31.60
2022-08-10T16:50:22.792Z,31.50
2022-08-10T16:52:53.857Z,31.40
2022-08-10T16:55:24.443Z,31.40
2022-08-10T16:58:13.539Z,31.40
2022-08-10T17:00:42.678Z,31.30
2022-08-10T17:04:04.880Z,31.30
2022-08-10T17:06:10.978Z,31.20
2022-08-10T17:08:52.269Z,31.10
2022-08-10T17:11:21.461Z,31.00
2022-08-10T17:13:48.389Z,31.00
2022-08-10T17:16:16.722Z,30.90
2022-08-10T17:18:46.735Z,30.80
2022-08-10T17:21:25.161Z,30.80
2022-08-10T17:23:54.670Z,30.70
2022-08-10T17:26:35.246Z,30.70
2022-08-10T17:29:17.432Z,30.60
2022-08-10T17:32:44.070Z,30.50
2022-08-10T17:35:13.748Z,30.40
2022-08-10T17:37:47.181Z,30.40
2022-08-10T17:40:20.728Z,30.30
2022-08-10T17:42:48.444Z,30.20
2022-08-10T17:45:46.776Z,30.10
2022-08-10T17:48:08.782Z,30.10
2022-08-10T17:50:37.362Z,30.00
2022-08-10T17:53:08.075Z,29.90
2022-08-10T17:55:36.985Z,29.90
2022-08-10T17:58:10.095Z,29.80
2022-08-10T18:00:45.242Z,29.70
2022-08-10T18:03:25.253Z,29.70
2022-08-10T18:06:05.054Z,29.60
2022-08-10T18:08:39.486Z,29.50
2022-08-10T18:11:10.418Z,29.40
2022-08-10T18:13:55.657Z,29.40
2022-08-10T18:16:26.929Z,29.30
2022-08-10T18:19:00.873Z,29.20
2022-08-10T18:21:28.956Z,29.10
2022-08-10T18:24:05.938Z,29.10
2022-08-10T18:26:35.827Z,28.90
2022-08-10T18:29:05.284Z,28.80
2022-08-10T18:31:33.086Z,28.80
2022-08-10T18:34:01.561Z,28.70
2022-08-10T18:36:29.059Z,28.60
2022-08-10T18:38:56.450Z,28.50
2022-08-10T18:41:36.888Z,28.50
2022-08-10T18:44:11.829Z,28.30
2022-08-10T18:46:45.513Z,28.20
2022-08-10T18:49:18.647Z,28.10
2022-08-10T18:51:48.860Z,28.00
2022-08-10T18:54:38.992Z,27.90
2022-08-10T18:57:17.128Z,27.90
2022-08-10T19:00:09.297Z,27.80
2022-08-10T19:02:47.542Z,27.60
2022-08-10T19:05:43.377Z,27.50
2022-08-10T19:08:30.260Z,27.40
2022-08-10T19:11:41.516Z,27.30
2022-08-10T19:14:34.254Z,27.10
2022-08-10T19:17:24.568Z,27.00
2022-08-10T19:20:09.117Z,26.90
2022-08-10T19:23:02.423Z,26.80
2022-08-10T19:26:42.865Z,26.70
2022-08-10T19:28:37.610Z,26.50
2022-08-10T19:31:13.020Z,26.40
2022-08-10T19:34:11.324Z,26.30
2022-08-10T19:37:11.030Z,26.20
2022-08-10T19:39:55.405Z,26.10
2022-08-10T19:42:50.909Z,26.00
2022-08-10T19:46:03.222Z,25.90
2022-08-10T19:48:37.542Z,25.70
2022-08-10T19:51:12.771Z,25.60
2022-08-10T19:53:38.773Z,25.50
2022-08-10T19:56:34.490Z,25.40
2022-08-10T20:00:15.926Z,25.40
2022-08-10T20:02:15.274Z,25.30
2022-08-10T20:04:51.910Z,25.20
2022-08-10T20:07:54.227Z,25.10
2022-08-10T20:10:52.606Z,25.00
2022-08-10T20:13:28.836Z,24.90
2022-08-10T20:16:05.611Z,24.80
2022-08-10T20:18:56.802Z,24.70
2022-08-10T20:21:42.509Z,24.60
2022-08-10T20:24:10.993Z,24.50
2022-08-10T20:26:51.959Z,24.30
2022-08-10T20:29:58.518Z,24.20
2022-08-10T20:32:23.655Z,24.20
2022-08-10T20:34:55.224Z,24.10
2022-08-10T20:37:36.890Z,24.00
2022-08-10T20:40:19.489Z,24.00
2022-08-10T20:43:23.680Z,23.90
2022-08-10T20:46:10.402Z,23.80
2022-08-10T20:48:45.302Z,23.70
2022-08-10T20:51:18.600Z,23.60
2022-08-10T20:53:55.885Z,23.60
2022-08-10T20:56:37.067Z,23.50
2022-08-10T20:59:33.666Z,23.50
2022-08-10T21:02:54.371Z,23.40
2022-08-10T21:05:33.512Z,23.30
2022-08-10T21:08:20.451Z,23.30
2022-08-10T21:11:02.457Z,23.20
2022-08-10T21:13:44.603Z,23.10
2022-08-10T21:16:32.111Z,23.00
2022-08-10T21:19:10.132Z,23.00
2022-08-10T21:25:01.435Z,22.80
2022-08-10T21:25:42.253Z,22.90
2022-08-10T21:28:05.694Z,22.80
2022-08-10T21:31:05.908Z,22.70
2022-08-10T21:33:44.589Z,22.60
2022-08-10T21:36:24.398Z,22.60
2022-08-10T21:39:14.720Z,22.50
2022-08-10T21:42:14.921Z,22.50
2022-08-10T21:45:47.568Z,22.40
2022-08-10T21:48:57.658Z,22.40
2022-08-10T21:52:11.913Z,22.30
2022-08-10T21:55:21.345Z,22.20
2022-08-10T21:58:15.189Z,22.20
2022-08-10T22:01:17.056Z,22.10
2022-08-10T22:04:02.472Z,22.00
2022-08-10T22:06:52.739Z,22.00
2022-08-10T22:09:44.992Z,21.90
2022-08-10T22:12:32.666Z,21.90
2022-08-10T22:16:03.177Z,21.90
2022-08-10T22:18:35.308Z,21.80
2022-08-10T22:21:45.777Z,21.80
2022-08-10T22:24:52.222Z,21.70
2022-08-10T22:27:53.236Z,21.70
2022-08-10T22:30:42.117Z,21.70
2022-08-10T22:33:43.604Z,21.60
2022-08-10T22:36:50.327Z,21.60
2022-08-10T22:40:11.137Z,21.50
2022-08-10T22:43:12.524Z,21.40
2022-08-10T22:46:12.785Z,21.30
2022-08-10T22:48:59.278Z,21.30
2022-08-10T22:52:11.936Z,21.20
2022-08-10T22:55:04.835Z,21.20
2022-08-10T22:57:49.601Z,21.10
2022-08-10T23:00:18.883Z,21.10
2022-08-10T23:03:08.954Z,21.10
2022-08-10T23:05:48.573Z,21.00
2022-08-10T23:08:32.331Z,21.00
2022-08-10T23:11:07.616Z,21.00
2022-08-10T23:13:41.116Z,21.00
2022-08-10T23:16:36.748Z,20.90
2022-08-10T23:19:30.104Z,20.90
2022-08-10T23:22:05.828Z,20.80
2022-08-10T23:24:45.929Z,20.80
2022-08-10T23:27:38.424Z,20.70
2022-08-10T23:30:10.559Z,20.70
2022-08-10T23:32:44.782Z,20.60
2022-08-10T23:36:30.501Z,20.60
2022-08-10T23:38:11.384Z,20.50
2022-08-10T23:40:43.086Z,20.50
2022-08-10T23:43:18.430Z,20.50
2022-08-10T23:45:56.305Z,20.40
2022-08-10T23:48:26.095Z,20.40
2022-08-10T23:51:16.529Z,20.40
2022-08-10T23:53:45.935Z,20.40
2022-08-10T23:56:18.734Z,20.30
2022-08-10T23:58:55.035Z,20.30
